マナグア の空港の天気 - METARとTAF

マナグア国際空港 ( MNMG / MGA ) - ニカラグア マナグア県マナグア
飛行場実況気象(Metar)
観測時間05/23 12:00 CST (05/23 18:00 UTC)
風向・風速東 5m/s
視程10km以上
天気現象
全天の4割程度の雲 雲底高度 300m
全天の8割程度の雲 雲底高度 610m
気温26℃
湿度89%
気圧1009hPa
METARMNMG 231800Z 10010KT 9999 SCT010 BKN020 26/24 Q1009 A2981 TEMPO 9000 -DZ
過去の天気等 Google飛行場航空写真 Wunderground天気予報

過去48時間のMETAR

飛行場予報(TAF)
発表時間: 5/23 09:30 CST (5/23 15:30 UTC)
予報対象時間: 23日12時 CST ~ 24日12時 CST
風向・風速不定 4m/s
視程7000m
23日15時 CST ~ 23日18時 CST に一時的に
風向・風速不定 2m/s
視程5000m
TAF COR MNMG 231530Z 2318/2418 VRB08KT 7000 DZ/RA BKN020 SCT070
TEMPO 2321/2400 VRB04KT 5000 RA/TSRA SCT020CB BKN060